KELP/ELP METAR and TAF weather

Enter ICAO airport designator
Station Type Date Time Source
KELP METAR 2019/10/16 19:51 UTC NOAA

KELP 161951Z 10009KT 070V140 10SM CLR 23/M01 A3021 RMK AO2 SLP172 T02281006


Station Type Date Time Source
KELP Decoded METAR 2019/10/16 19:51 UTC NOAA

EL PASO INTERNATIONAL AIRPORT , TX, United States (KELP) 31-49N 106-23W 1197M
Oct 16, 2019 - 03:51 PM EDT / 2019.10.16 1951 UTC
Wind: from the E (100 degrees) at 10 MPH (9 KT) (direction variable):0
Visibility: 10 mile(s):0
Sky conditions: clear
Temperature: 73.0 F (22.8 C)
Dew Point: 30.9 F (-0.6 C)
Relative Humidity: 21%
Pressure (altimeter): 30.21 in. Hg (1023 hPa)
ob: KELP 161951Z 10009KT 070V140 10SM CLR 23/M01 A3021 RMK AO2 SLP172 T02281006
cycle: 20

Station Type Date Time Source
KELP TAF 2019/10/16 18:39 UTC NOAA

TAF KELP 161720Z 1618/1718 10011KT P6SM SKC
FM170200 12009KT P6SM SKC
FM171200 03005KT P6SM FEW250

Example: see airport list